sensor_id;sensor_type;location;lat;lon;timestamp;temperature;humidity
69324;DHT22;56470;47.350;8.718;2023-05-07T00:00:46;18.85;61.01
69324;DHT22;56470;47.350;8.718;2023-05-07T00:03:11;18.87;61.04
69324;DHT22;56470;47.350;8.718;2023-05-07T00:05:39;18.84;60.85
69324;DHT22;56470;47.350;8.718;2023-05-07T00:08:04;18.77;60.90
69324;DHT22;56470;47.350;8.718;2023-05-07T00:10:30;18.74;60.98
69324;DHT22;56470;47.350;8.718;2023-05-07T00:12:55;18.69;61.01
69324;DHT22;56470;47.350;8.718;2023-05-07T00:15:28;18.71;60.94
69324;DHT22;56470;47.350;8.718;2023-05-07T00:17:53;18.60;60.96
69324;DHT22;56470;47.350;8.718;2023-05-07T00:20:19;18.57;61.09
69324;DHT22;56470;47.350;8.718;2023-05-07T00:22:47;18.51;61.28
69324;DHT22;56470;47.350;8.718;2023-05-07T00:25:15;18.46;61.27
69324;DHT22;56470;47.350;8.718;2023-05-07T00:27:40;18.43;61.36
69324;DHT22;56470;47.350;8.718;2023-05-07T00:30:06;18.41;61.40
69324;DHT22;56470;47.350;8.718;2023-05-07T00:32:31;18.43;61.29
69324;DHT22;56470;47.350;8.718;2023-05-07T00:34:57;18.44;61.24
69324;DHT22;56470;47.350;8.718;2023-05-07T00:37:22;18.40;61.24
69324;DHT22;56470;47.350;8.718;2023-05-07T00:39:47;18.40;61.30
69324;DHT22;56470;47.350;8.718;2023-05-07T00:42:13;18.36;61.28
69324;DHT22;56470;47.350;8.718;2023-05-07T00:44:40;18.33;61.30
69324;DHT22;56470;47.350;8.718;2023-05-07T00:47:05;18.30;61.37
69324;DHT22;56470;47.350;8.718;2023-05-07T00:52:02;18.25;61.57
69324;DHT22;56470;47.350;8.718;2023-05-07T00:54:28;18.25;61.68
69324;DHT22;56470;47.350;8.718;2023-05-07T00:56:54;18.23;61.55
69324;DHT22;56470;47.350;8.718;2023-05-07T00:59:20;18.26;61.58
69324;DHT22;56470;47.350;8.718;2023-05-07T01:01:45;18.29;61.64
69324;DHT22;56470;47.350;8.718;2023-05-07T01:04:11;18.33;61.54
69324;DHT22;56470;47.350;8.718;2023-05-07T01:06:37;18.36;61.27
69324;DHT22;56470;47.350;8.718;2023-05-07T01:09:02;18.32;61.10
69324;DHT22;56470;47.350;8.718;2023-05-07T01:11:29;18.29;61.27
69324;DHT22;56470;47.350;8.718;2023-05-07T01:13:55;18.23;61.25
69324;DHT22;56470;47.350;8.718;2023-05-07T01:16:21;18.19;61.25
69324;DHT22;56470;47.350;8.718;2023-05-07T01:18:47;18.12;61.28
69324;DHT22;56470;47.350;8.718;2023-05-07T01:21:15;18.06;61.52
69324;DHT22;56470;47.350;8.718;2023-05-07T01:23:42;18.04;61.49
69324;DHT22;56470;47.350;8.718;2023-05-07T01:26:07;17.98;61.55
69324;DHT22;56470;47.350;8.718;2023-05-07T01:28:32;17.89;61.87
69324;DHT22;56470;47.350;8.718;2023-05-07T01:31:02;17.87;61.96
69324;DHT22;56470;47.350;8.718;2023-05-07T01:33:32;17.82;62.09
69324;DHT22;56470;47.350;8.718;2023-05-07T01:35:58;17.85;62.17
69324;DHT22;56470;47.350;8.718;2023-05-07T01:38:27;17.94;62.12
69324;DHT22;56470;47.350;8.718;2023-05-07T01:40:53;17.94;61.88
69324;DHT22;56470;47.350;8.718;2023-05-07T01:43:19;17.95;61.75
69324;DHT22;56470;47.350;8.718;2023-05-07T01:45:45;17.92;61.67
69324;DHT22;56470;47.350;8.718;2023-05-07T01:48:11;17.87;61.61
69324;DHT22;56470;47.350;8.718;2023-05-07T01:50:38;17.84;61.74
69324;DHT22;56470;47.350;8.718;2023-05-07T01:53:03;17.84;61.58
69324;DHT22;56470;47.350;8.718;2023-05-07T01:55:29;17.79;61.54
69324;DHT22;56470;47.350;8.718;2023-05-07T01:57:54;17.81;61.64
69324;DHT22;56470;47.350;8.718;2023-05-07T02:00:20;17.81;61.70
69324;DHT22;56470;47.350;8.718;2023-05-07T02:02:45;17.87;61.53
69324;DHT22;56470;47.350;8.718;2023-05-07T02:05:11;17.87;61.50
69324;DHT22;56470;47.350;8.718;2023-05-07T02:07:36;17.85;61.65
69324;DHT22;56470;47.350;8.718;2023-05-07T02:10:02;17.84;61.64
69324;DHT22;56470;47.350;8.718;2023-05-07T02:12:28;17.79;61.74
69324;DHT22;56470;47.350;8.718;2023-05-07T02:14:53;17.74;61.86
69324;DHT22;56470;47.350;8.718;2023-05-07T02:17:19;17.70;61.95
69324;DHT22;56470;47.350;8.718;2023-05-07T02:19:44;17.64;62.14
69324;DHT22;56470;47.350;8.718;2023-05-07T02:22:09;17.66;62.04
69324;DHT22;56470;47.350;8.718;2023-05-07T02:24:35;17.66;62.15
69324;DHT22;56470;47.350;8.718;2023-05-07T02:27:00;17.61;62.20
69324;DHT22;56470;47.350;8.718;2023-05-07T02:29:26;17.60;62.24
69324;DHT22;56470;47.350;8.718;2023-05-07T02:31:51;17.55;62.30
69324;DHT22;56470;47.350;8.718;2023-05-07T02:34:18;17.57;62.26
69324;DHT22;56470;47.350;8.718;2023-05-07T02:36:43;17.55;62.39
69324;DHT22;56470;47.350;8.718;2023-05-07T02:39:09;17.51;62.43
69324;DHT22;56470;47.350;8.718;2023-05-07T02:41:34;17.51;62.50
69324;DHT22;56470;47.350;8.718;2023-05-07T02:43:59;17.51;62.46
69324;DHT22;56470;47.350;8.718;2023-05-07T02:46:25;17.54;62.31
69324;DHT22;56470;47.350;8.718;2023-05-07T02:48:50;17.54;62.30
69324;DHT22;56470;47.350;8.718;2023-05-07T02:51:19;17.51;62.13
69324;DHT22;56470;47.350;8.718;2023-05-07T02:53:44;17.50;61.98
69324;DHT22;56470;47.350;8.718;2023-05-07T02:56:10;17.49;62.05
69324;DHT22;56470;47.350;8.718;2023-05-07T02:58:35;17.50;62.18
69324;DHT22;56470;47.350;8.718;2023-05-07T03:01:00;17.47;62.14
69324;DHT22;56470;47.350;8.718;2023-05-07T03:03:25;17.42;62.24
69324;DHT22;56470;47.350;8.718;2023-05-07T03:05:51;17.36;62.37
69324;DHT22;56470;47.350;8.718;2023-05-07T03:08:16;17.34;62.53
69324;DHT22;56470;47.350;8.718;2023-05-07T03:10:41;17.32;62.49
69324;DHT22;56470;47.350;8.718;2023-05-07T03:13:07;17.26;62.54
69324;DHT22;56470;47.350;8.718;2023-05-07T03:15:32;17.18;62.64
69324;DHT22;56470;47.350;8.718;2023-05-07T03:17:57;17.09;62.87
69324;DHT22;56470;47.350;8.718;2023-05-07T03:20:23;17.02;62.97
69324;DHT22;56470;47.350;8.718;2023-05-07T03:22:48;16.96;63.19
69324;DHT22;56470;47.350;8.718;2023-05-07T03:25:13;16.92;63.19
69324;DHT22;56470;47.350;8.718;2023-05-07T03:27:41;16.87;63.20
69324;DHT22;56470;47.350;8.718;2023-05-07T03:30:07;16.82;63.29
69324;DHT22;56470;47.350;8.718;2023-05-07T03:32:34;16.78;63.35
69324;DHT22;56470;47.350;8.718;2023-05-07T03:35:00;16.72;63.37
69324;DHT22;56470;47.350;8.718;2023-05-07T03:37:25;16.72;63.45
69324;DHT22;56470;47.350;8.718;2023-05-07T03:39:51;16.72;63.44
69324;DHT22;56470;47.350;8.718;2023-05-07T03:42:16;16.70;63.37
69324;DHT22;56470;47.350;8.718;2023-05-07T03:44:41;16.64;63.42
69324;DHT22;56470;47.350;8.718;2023-05-07T03:47:07;16.65;63.44
69324;DHT22;56470;47.350;8.718;2023-05-07T03:49:33;16.72;63.43
69324;DHT22;56470;47.350;8.718;2023-05-07T03:51:58;16.74;63.48
69324;DHT22;56470;47.350;8.718;2023-05-07T03:54:23;16.78;63.37
69324;DHT22;56470;47.350;8.718;2023-05-07T03:56:49;16.77;63.43
69324;DHT22;56470;47.350;8.718;2023-05-07T03:59:14;16.78;63.55
69324;DHT22;56470;47.350;8.718;2023-05-07T04:01:39;16.82;63.48
69324;DHT22;56470;47.350;8.718;2023-05-07T04:04:05;16.87;63.52
69324;DHT22;56470;47.350;8.718;2023-05-07T04:06:30;16.91;63.41
69324;DHT22;56470;47.350;8.718;2023-05-07T04:08:56;16.88;63.51
69324;DHT22;56470;47.350;8.718;2023-05-07T04:11:21;16.87;63.52
69324;DHT22;56470;47.350;8.718;2023-05-07T04:13:47;16.87;63.71
69324;DHT22;56470;47.350;8.718;2023-05-07T04:16:12;16.87;63.54
69324;DHT22;56470;47.350;8.718;2023-05-07T04:18:38;16.82;63.36
69324;DHT22;56470;47.350;8.718;2023-05-07T04:21:03;16.80;63.35
69324;DHT22;56470;47.350;8.718;2023-05-07T04:23:29;16.77;63.43
69324;DHT22;56470;47.350;8.718;2023-05-07T04:25:54;16.72;63.38
69324;DHT22;56470;47.350;8.718;2023-05-07T04:28:20;16.72;63.23
69324;DHT22;56470;47.350;8.718;2023-05-07T04:30:45;16.74;63.33
69324;DHT22;56470;47.350;8.718;2023-05-07T04:33:11;16.75;63.51
69324;DHT22;56470;47.350;8.718;2023-05-07T04:35:36;16.80;63.49
69324;DHT22;56470;47.350;8.718;2023-05-07T04:38:02;16.77;63.65
69324;DHT22;56470;47.350;8.718;2023-05-07T04:40:27;16.78;63.66
69324;DHT22;56470;47.350;8.718;2023-05-07T04:42:52;16.78;63.84
69324;DHT22;56470;47.350;8.718;2023-05-07T04:45:18;16.84;63.90
69324;DHT22;56470;47.350;8.718;2023-05-07T04:47:43;16.88;63.86
69324;DHT22;56470;47.350;8.718;2023-05-07T04:50:09;16.92;63.73
69324;DHT22;56470;47.350;8.718;2023-05-07T04:52:35;16.99;63.81
69324;DHT22;56470;47.350;8.718;2023-05-07T04:55:01;17.05;63.66
69324;DHT22;56470;47.350;8.718;2023-05-07T04:57:26;17.01;63.69
69324;DHT22;56470;47.350;8.718;2023-05-07T04:59:52;17.01;63.72
69324;DHT22;56470;47.350;8.718;2023-05-07T05:02:18;17.04;63.80
69324;DHT22;56470;47.350;8.718;2023-05-07T05:04:43;17.08;63.67
69324;DHT22;56470;47.350;8.718;2023-05-07T05:07:09;17.05;63.74
69324;DHT22;56470;47.350;8.718;2023-05-07T05:09:34;17.04;63.70
69324;DHT22;56470;47.350;8.718;2023-05-07T05:11:59;17.09;63.59
69324;DHT22;56470;47.350;8.718;2023-05-07T05:14:25;17.11;63.51
69324;DHT22;56470;47.350;8.718;2023-05-07T05:16:50;17.09;63.51
69324;DHT22;56470;47.350;8.718;2023-05-07T05:19:16;17.09;63.63
69324;DHT22;56470;47.350;8.718;2023-05-07T05:21:41;17.12;63.72
69324;DHT22;56470;47.350;8.718;2023-05-07T05:24:06;17.18;63.66
69324;DHT22;56470;47.350;8.718;2023-05-07T05:26:32;17.23;63.62
69324;DHT22;56470;47.350;8.718;2023-05-07T05:28:57;17.26;63.57
69324;DHT22;56470;47.350;8.718;2023-05-07T05:31:22;17.27;63.57
69324;DHT22;56470;47.350;8.718;2023-05-07T05:33:50;17.32;63.49
69324;DHT22;56470;47.350;8.718;2023-05-07T05:36:16;17.36;63.48
69324;DHT22;56470;47.350;8.718;2023-05-07T05:38:41;17.39;63.40
69324;DHT22;56470;47.350;8.718;2023-05-07T05:41:07;17.40;63.35
69324;DHT22;56470;47.350;8.718;2023-05-07T05:43:32;17.39;63.51
69324;DHT22;56470;47.350;8.718;2023-05-07T05:45:58;17.44;63.57
69324;DHT22;56470;47.350;8.718;2023-05-07T05:48:24;17.44;63.54
69324;DHT22;56470;47.350;8.718;2023-05-07T05:50:49;17.46;63.84
69324;DHT22;56470;47.350;8.718;2023-05-07T05:53:14;17.51;63.81
69324;DHT22;56470;47.350;8.718;2023-05-07T05:55:41;17.55;63.82
69324;DHT22;56470;47.350;8.718;2023-05-07T05:58:07;17.60;63.84
69324;DHT22;56470;47.350;8.718;2023-05-07T06:00:32;17.61;63.84
69324;DHT22;56470;47.350;8.718;2023-05-07T06:02:57;17.63;63.91
69324;DHT22;56470;47.350;8.718;2023-05-07T06:05:23;17.64;63.74
69324;DHT22;56470;47.350;8.718;2023-05-07T06:07:48;17.57;63.56
69324;DHT22;56470;47.350;8.718;2023-05-07T06:10:13;17.44;63.55
69324;DHT22;56470;47.350;8.718;2023-05-07T06:12:39;17.37;63.67
69324;DHT22;56470;47.350;8.718;2023-05-07T06:15:05;17.36;63.82
69324;DHT22;56470;47.350;8.718;2023-05-07T06:17:30;17.32;63.66
69324;DHT22;56470;47.350;8.718;2023-05-07T06:19:55;17.34;63.73
69324;DHT22;56470;47.350;8.718;2023-05-07T06:22:21;17.36;63.66
69324;DHT22;56470;47.350;8.718;2023-05-07T06:24:46;17.42;63.78
69324;DHT22;56470;47.350;8.718;2023-05-07T06:27:12;17.47;63.68
69324;DHT22;56470;47.350;8.718;2023-05-07T06:29:37;17.50;63.61
69324;DHT22;56470;47.350;8.718;2023-05-07T06:32:12;17.53;63.44
69324;DHT22;56470;47.350;8.718;2023-05-07T06:34:38;17.57;63.39
69324;DHT22;56470;47.350;8.718;2023-05-07T06:37:03;17.66;63.50
69324;DHT22;56470;47.350;8.718;2023-05-07T06:39:29;17.78;63.34
69324;DHT22;56470;47.350;8.718;2023-05-07T06:41:54;17.92;63.00
69324;DHT22;56470;47.350;8.718;2023-05-07T06:44:19;17.99;62.62
69324;DHT22;56470;47.350;8.718;2023-05-07T06:46:45;18.06;62.62
69324;DHT22;56470;47.350;8.718;2023-05-07T06:49:12;18.10;62.50
69324;DHT22;56470;47.350;8.718;2023-05-07T06:51:38;18.16;62.44
69324;DHT22;56470;47.350;8.718;2023-05-07T06:54:03;18.25;62.27
69324;DHT22;56470;47.350;8.718;2023-05-07T06:56:30;18.33;61.98
69324;DHT22;56470;47.350;8.718;2023-05-07T06:58:55;18.36;62.03
69324;DHT22;56470;47.350;8.718;2023-05-07T07:01:21;18.47;61.75
69324;DHT22;56470;47.350;8.718;2023-05-07T07:03:46;18.57;61.61
69324;DHT22;56470;47.350;8.718;2023-05-07T07:06:12;18.71;61.40
69324;DHT22;56470;47.350;8.718;2023-05-07T07:08:37;18.85;61.10
69324;DHT22;56470;47.350;8.718;2023-05-07T07:11:04;18.94;60.89
69324;DHT22;56470;47.350;8.718;2023-05-07T07:13:29;19.01;60.60
69324;DHT22;56470;47.350;8.718;2023-05-07T07:15:55;19.11;60.61
69324;DHT22;56470;47.350;8.718;2023-05-07T07:18:20;19.22;60.41
69324;DHT22;56470;47.350;8.718;2023-05-07T07:20:45;19.36;60.33
69324;DHT22;56470;47.350;8.718;2023-05-07T07:23:11;19.47;59.97
69324;DHT22;56470;47.350;8.718;2023-05-07T07:25:36;19.57;59.60
69324;DHT22;56470;47.350;8.718;2023-05-07T07:28:01;19.60;59.39
69324;DHT22;56470;47.350;8.718;2023-05-07T07:30:27;19.57;59.10
69324;DHT22;56470;47.350;8.718;2023-05-07T07:32:52;19.60;59.00
69324;DHT22;56470;47.350;8.718;2023-05-07T07:35:18;19.67;58.97
69324;DHT22;56470;47.350;8.718;2023-05-07T07:37:43;19.75;58.78
69324;DHT22;56470;47.350;8.718;2023-05-07T07:40:09;19.85;58.70
69324;DHT22;56470;47.350;8.718;2023-05-07T07:42:34;19.94;58.53
69324;DHT22;56470;47.350;8.718;2023-05-07T07:45:00;19.98;58.34
69324;DHT22;56470;47.350;8.718;2023-05-07T07:47:25;20.05;58.43
69324;DHT22;56470;47.350;8.718;2023-05-07T07:49:50;20.08;58.41
69324;DHT22;56470;47.350;8.718;2023-05-07T07:52:16;20.11;58.87
69324;DHT22;56470;47.350;8.718;2023-05-07T07:54:41;20.12;58.82
69324;DHT22;56470;47.350;8.718;2023-05-07T07:57:06;20.13;58.79
69324;DHT22;56470;47.350;8.718;2023-05-07T07:59:32;20.16;58.91
69324;DHT22;56470;47.350;8.718;2023-05-07T08:01:57;20.25;59.06
69324;DHT22;56470;47.350;8.718;2023-05-07T08:04:22;20.28;59.19
69324;DHT22;56470;47.350;8.718;2023-05-07T08:06:48;20.36;59.13
69324;DHT22;56470;47.350;8.718;2023-05-07T08:09:14;20.41;59.18
69324;DHT22;56470;47.350;8.718;2023-05-07T08:11:39;20.48;58.76
69324;DHT22;56470;47.350;8.718;2023-05-07T08:14:05;20.51;58.94
69324;DHT22;56470;47.350;8.718;2023-05-07T08:16:30;20.60;59.05
69324;DHT22;56470;47.350;8.718;2023-05-07T08:18:55;20.70;58.99
69324;DHT22;56470;47.350;8.718;2023-05-07T08:21:21;20.73;58.98
69324;DHT22;56470;47.350;8.718;2023-05-07T08:23:47;20.75;59.09
69324;DHT22;56470;47.350;8.718;2023-05-07T08:26:12;20.82;59.17
69324;DHT22;56470;47.350;8.718;2023-05-07T08:28:37;20.78;58.90
69324;DHT22;56470;47.350;8.718;2023-05-07T08:31:03;20.65;58.85
69324;DHT22;56470;47.350;8.718;2023-05-07T08:33:28;20.60;59.29
69324;DHT22;56470;47.350;8.718;2023-05-07T08:35:53;20.67;59.27
69324;DHT22;56470;47.350;8.718;2023-05-07T08:38:19;20.68;59.10
69324;DHT22;56470;47.350;8.718;2023-05-07T08:40:44;20.71;58.95
69324;DHT22;56470;47.350;8.718;2023-05-07T08:43:12;20.73;58.98
69324;DHT22;56470;47.350;8.718;2023-05-07T08:45:39;20.73;59.09
69324;DHT22;56470;47.350;8.718;2023-05-07T08:48:08;20.78;58.98
69324;DHT22;56470;47.350;8.718;2023-05-07T08:50:38;20.82;58.62
69324;DHT22;56470;47.350;8.718;2023-05-07T08:53:03;20.87;58.69
69324;DHT22;56470;47.350;8.718;2023-05-07T08:55:29;20.90;58.56
69324;DHT22;56470;47.350;8.718;2023-05-07T08:57:55;20.92;58.48
69324;DHT22;56470;47.350;8.718;2023-05-07T09:00:20;20.96;58.69
69324;DHT22;56470;47.350;8.718;2023-05-07T09:02:46;21.03;58.71
69324;DHT22;56470;47.350;8.718;2023-05-07T09:05:11;21.06;58.34
69324;DHT22;56470;47.350;8.718;2023-05-07T09:07:36;21.08;58.09
69324;DHT22;56470;47.350;8.718;2023-05-07T09:10:03;21.03;58.21
69324;DHT22;56470;47.350;8.718;2023-05-07T09:12:29;21.12;58.37
69324;DHT22;56470;47.350;8.718;2023-05-07T09:14:54;21.23;58.63
69324;DHT22;56470;47.350;8.718;2023-05-07T09:17:20;21.32;58.57
69324;DHT22;56470;47.350;8.718;2023-05-07T09:19:45;21.35;58.59
69324;DHT22;56470;47.350;8.718;2023-05-07T09:22:11;21.35;58.54
69324;DHT22;56470;47.350;8.718;2023-05-07T09:24:37;21.42;58.39
69324;DHT22;56470;47.350;8.718;2023-05-07T09:27:04;21.42;58.07
69324;DHT22;56470;47.350;8.718;2023-05-07T09:29:29;21.47;57.92
69324;DHT22;56470;47.350;8.718;2023-05-07T09:32:00;21.44;57.78
69324;DHT22;56470;47.350;8.718;2023-05-07T09:34:25;21.54;57.90
69324;DHT22;56470;47.350;8.718;2023-05-07T09:36:51;21.67;57.56
69324;DHT22;56470;47.350;8.718;2023-05-07T09:39:16;21.70;57.01
69324;DHT22;56470;47.350;8.718;2023-05-07T09:41:46;21.75;56.73
69324;DHT22;56470;47.350;8.718;2023-05-07T09:44:13;21.87;57.03
69324;DHT22;56470;47.350;8.718;2023-05-07T09:46:42;21.97;56.49
69324;DHT22;56470;47.350;8.718;2023-05-07T09:49:12;22.06;56.15
69324;DHT22;56470;47.350;8.718;2023-05-07T09:51:48;22.10;55.62
69324;DHT22;56470;47.350;8.718;2023-05-07T09:54:14;22.09;55.95
69324;DHT22;56470;47.350;8.718;2023-05-07T09:56:40;22.01;55.57
69324;DHT22;56470;47.350;8.718;2023-05-07T09:59:07;21.92;55.82
69324;DHT22;56470;47.350;8.718;2023-05-07T10:01:36;21.92;55.90
69324;DHT22;56470;47.350;8.718;2023-05-07T10:04:02;21.92;56.11
69324;DHT22;56470;47.350;8.718;2023-05-07T10:06:30;21.85;55.78
69324;DHT22;56470;47.350;8.718;2023-05-07T10:08:55;21.84;55.96
69324;DHT22;56470;47.350;8.718;2023-05-07T10:11:22;21.77;55.93
69324;DHT22;56470;47.350;8.718;2023-05-07T10:13:48;21.77;56.02
69324;DHT22;56470;47.350;8.718;2023-05-07T10:16:14;21.78;55.99
69324;DHT22;56470;47.350;8.718;2023-05-07T10:18:40;21.77;55.84
69324;DHT22;56470;47.350;8.718;2023-05-07T10:21:26;21.74;54.21
69324;DHT22;56470;47.350;8.718;2023-05-07T10:24:05;21.80;53.91
69324;DHT22;56470;47.350;8.718;2023-05-07T10:26:35;21.74;55.12
69324;DHT22;56470;47.350;8.718;2023-05-07T10:29:13;21.78;54.58
69324;DHT22;56470;47.350;8.718;2023-05-07T10:32:10;21.73;54.06
69324;DHT22;56470;47.350;8.718;2023-05-07T10:34:42;21.64;54.78
69324;DHT22;56470;47.350;8.718;2023-05-07T10:37:08;21.58;54.84
69324;DHT22;56470;47.350;8.718;2023-05-07T10:39:34;21.58;55.07
69324;DHT22;56470;47.350;8.718;2023-05-07T10:42:10;21.63;54.41
69324;DHT22;56470;47.350;8.718;2023-05-07T10:44:35;21.63;54.82
69324;DHT22;56470;47.350;8.718;2023-05-07T10:47:09;21.57;54.86
69324;DHT22;56470;47.350;8.718;2023-05-07T10:52:23;21.71;55.09
69324;DHT22;56470;47.350;8.718;2023-05-07T10:57:46;21.88;54.91
69324;DHT22;56470;47.350;8.718;2023-05-07T11:03:04;21.81;54.47
69324;DHT22;56470;47.350;8.718;2023-05-07T11:05:32;21.77;54.80
69324;DHT22;56470;47.350;8.718;2023-05-07T11:08:01;21.73;54.76
69324;DHT22;56470;47.350;8.718;2023-05-07T11:13:18;21.87;54.68
69324;DHT22;56470;47.350;8.718;2023-05-07T11:15:45;21.92;54.65
69324;DHT22;56470;47.350;8.718;2023-05-07T11:18:13;22.05;54.54
69324;DHT22;56470;47.350;8.718;2023-05-07T11:20:53;22.13;53.78
69324;DHT22;56470;47.350;8.718;2023-05-07T11:26:03;22.33;53.96
69324;DHT22;56470;47.350;8.718;2023-05-07T11:28:29;22.47;54.28
69324;DHT22;56470;47.350;8.718;2023-05-07T11:30:56;22.57;54.18
69324;DHT22;56470;47.350;8.718;2023-05-07T11:33:22;22.68;53.97
69324;DHT22;56470;47.350;8.718;2023-05-07T11:35:48;22.79;53.73
69324;DHT22;56470;47.350;8.718;2023-05-07T11:38:13;22.81;53.35
69324;DHT22;56470;47.350;8.718;2023-05-07T11:40:59;22.84;51.40
69324;DHT22;56470;47.350;8.718;2023-05-07T11:43:29;22.84;53.12
69324;DHT22;56470;47.350;8.718;2023-05-07T11:45:54;22.92;53.05
69324;DHT22;56470;47.350;8.718;2023-05-07T11:48:21;23.02;52.94
69324;DHT22;56470;47.350;8.718;2023-05-07T11:51:00;23.05;52.27
69324;DHT22;56470;47.350;8.718;2023-05-07T11:53:26;23.11;52.90
69324;DHT22;56470;47.350;8.718;2023-05-07T11:55:52;23.15;52.75
69324;DHT22;56470;47.350;8.718;2023-05-07T11:58:22;23.16;52.55
69324;DHT22;56470;47.350;8.718;2023-05-07T12:00:51;23.11;52.85
69324;DHT22;56470;47.350;8.718;2023-05-07T12:03:17;23.15;53.11
69324;DHT22;56470;47.350;8.718;2023-05-07T12:05:46;23.19;52.96
69324;DHT22;56470;47.350;8.718;2023-05-07T12:08:18;23.23;52.94
69324;DHT22;56470;47.350;8.718;2023-05-07T12:10:45;23.29;53.07
69324;DHT22;56470;47.350;8.718;2023-05-07T12:13:21;23.30;53.17
69324;DHT22;56470;47.350;8.718;2023-05-07T12:15:46;23.32;53.21
69324;DHT22;56470;47.350;8.718;2023-05-07T12:18:13;23.38;53.22
69324;DHT22;56470;47.350;8.718;2023-05-07T12:20:39;23.34;53.20
69324;DHT22;56470;47.350;8.718;2023-05-07T12:23:05;23.33;53.26
69324;DHT22;56470;47.350;8.718;2023-05-07T12:25:31;23.36;53.45
69324;DHT22;56470;47.350;8.718;2023-05-07T12:27:57;23.36;53.60
69324;DHT22;56470;47.350;8.718;2023-05-07T12:30:24;23.39;53.68
69324;DHT22;56470;47.350;8.718;2023-05-07T12:32:53;23.43;53.90
69324;DHT22;56470;47.350;8.718;2023-05-07T12:35:39;23.46;53.77
69324;DHT22;56470;47.350;8.718;2023-05-07T12:38:14;23.46;53.93
69324;DHT22;56470;47.350;8.718;2023-05-07T12:40:41;23.47;53.95
69324;DHT22;56470;47.350;8.718;2023-05-07T12:43:07;23.45;53.93
69324;DHT22;56470;47.350;8.718;2023-05-07T12:45:37;23.47;53.95
69324;DHT22;56470;47.350;8.718;2023-05-07T12:48:02;23.49;53.84
69324;DHT22;56470;47.350;8.718;2023-05-07T12:50:31;23.50;53.67
69324;DHT22;56470;47.350;8.718;2023-05-07T12:52:57;23.50;53.54
69324;DHT22;56470;47.350;8.718;2023-05-07T12:55:23;23.47;53.65
69324;DHT22;56470;47.350;8.718;2023-05-07T12:57:49;23.45;53.90
69324;DHT22;56470;47.350;8.718;2023-05-07T13:00:31;23.47;53.94
69324;DHT22;56470;47.350;8.718;2023-05-07T13:02:58;23.51;53.79
69324;DHT22;56470;47.350;8.718;2023-05-07T13:05:23;23.49;53.60
69324;DHT22;56470;47.350;8.718;2023-05-07T13:07:55;23.47;53.79
69324;DHT22;56470;47.350;8.718;2023-05-07T13:10:22;23.50;53.75
69324;DHT22;56470;47.350;8.718;2023-05-07T13:12:48;23.47;53.62
69324;DHT22;56470;47.350;8.718;2023-05-07T13:15:13;23.46;53.75
69324;DHT22;56470;47.350;8.718;2023-05-07T13:17:38;23.45;53.61
69324;DHT22;56470;47.350;8.718;2023-05-07T13:20:04;23.46;53.87
69324;DHT22;56470;47.350;8.718;2023-05-07T13:22:31;23.46;53.55
69324;DHT22;56470;47.350;8.718;2023-05-07T13:24:56;23.46;53.33
69324;DHT22;56470;47.350;8.718;2023-05-07T13:27:22;23.45;53.04
69324;DHT22;56470;47.350;8.718;2023-05-07T13:29:47;23.43;53.25
69324;DHT22;56470;47.350;8.718;2023-05-07T13:32:12;23.42;53.18
69324;DHT22;56470;47.350;8.718;2023-05-07T13:34:37;23.42;53.05
69324;DHT22;56470;47.350;8.718;2023-05-07T13:37:03;23.42;52.94
69324;DHT22;56470;47.350;8.718;2023-05-07T13:39:28;23.36;53.03
69324;DHT22;56470;47.350;8.718;2023-05-07T13:41:53;23.34;53.09
69324;DHT22;56470;47.350;8.718;2023-05-07T13:44:19;23.36;53.35
69324;DHT22;56470;47.350;8.718;2023-05-07T13:46:44;23.39;53.53
69324;DHT22;56470;47.350;8.718;2023-05-07T13:49:10;23.42;53.54
69324;DHT22;56470;47.350;8.718;2023-05-07T13:51:36;23.40;53.68
69324;DHT22;56470;47.350;8.718;2023-05-07T13:54:01;23.38;54.01
69324;DHT22;56470;47.350;8.718;2023-05-07T13:56:26;23.34;54.38
69324;DHT22;56470;47.350;8.718;2023-05-07T13:58:53;23.33;54.64
69324;DHT22;56470;47.350;8.718;2023-05-07T14:01:18;23.30;54.78
69324;DHT22;56470;47.350;8.718;2023-05-07T14:03:44;23.20;54.89
69324;DHT22;56470;47.350;8.718;2023-05-07T14:06:09;23.12;54.92
69324;DHT22;56470;47.350;8.718;2023-05-07T14:08:35;23.01;55.08
69324;DHT22;56470;47.350;8.718;2023-05-07T14:11:03;22.94;55.17
69324;DHT22;56470;47.350;8.718;2023-05-07T14:13:28;22.87;55.27
69324;DHT22;56470;47.350;8.718;2023-05-07T14:15:56;22.78;55.44
69324;DHT22;56470;47.350;8.718;2023-05-07T14:18:21;22.79;55.69
69324;DHT22;56470;47.350;8.718;2023-05-07T14:20:46;22.79;55.80
69324;DHT22;56470;47.350;8.718;2023-05-07T14:23:14;22.77;55.79
69324;DHT22;56470;47.350;8.718;2023-05-07T14:25:39;22.72;55.88
69324;DHT22;56470;47.350;8.718;2023-05-07T14:28:04;22.72;55.93
69324;DHT22;56470;47.350;8.718;2023-05-07T14:30:30;22.71;55.91
69324;DHT22;56470;47.350;8.718;2023-05-07T14:32:55;22.64;55.54
69324;DHT22;56470;47.350;8.718;2023-05-07T14:35:20;22.59;55.40
69324;DHT22;56470;47.350;8.718;2023-05-07T14:37:46;22.56;55.20
69324;DHT22;56470;47.350;8.718;2023-05-07T14:40:11;22.53;54.69
69324;DHT22;56470;47.350;8.718;2023-05-07T14:42:37;22.44;54.49
69324;DHT22;56470;47.350;8.718;2023-05-07T14:45:02;22.42;54.45
69324;DHT22;56470;47.350;8.718;2023-05-07T14:47:28;22.36;54.49
69324;DHT22;56470;47.350;8.718;2023-05-07T14:49:54;22.33;54.55
69324;DHT22;56470;47.350;8.718;2023-05-07T14:52:19;22.29;54.71
69324;DHT22;56470;47.350;8.718;2023-05-07T14:54:44;22.26;54.82
69324;DHT22;56470;47.350;8.718;2023-05-07T14:57:10;22.19;54.90
69324;DHT22;56470;47.350;8.718;2023-05-07T14:59:38;22.16;55.14
69324;DHT22;56470;47.350;8.718;2023-05-07T15:02:04;22.15;55.41
69324;DHT22;56470;47.350;8.718;2023-05-07T15:04:30;22.05;55.58
69324;DHT22;56470;47.350;8.718;2023-05-07T15:06:56;21.95;55.72
69324;DHT22;56470;47.350;8.718;2023-05-07T15:09:21;21.84;56.06
69324;DHT22;56470;47.350;8.718;2023-05-07T15:11:47;21.80;56.20
69324;DHT22;56470;47.350;8.718;2023-05-07T15:14:12;21.67;56.60
69324;DHT22;56470;47.350;8.718;2023-05-07T15:16:37;21.63;56.81
69324;DHT22;56470;47.350;8.718;2023-05-07T15:19:02;21.63;57.05
69324;DHT22;56470;47.350;8.718;2023-05-07T15:21:28;21.57;57.15
69324;DHT22;56470;47.350;8.718;2023-05-07T15:23:53;21.53;57.47
69324;DHT22;56470;47.350;8.718;2023-05-07T15:26:19;21.54;57.64
69324;DHT22;56470;47.350;8.718;2023-05-07T15:28:45;21.51;58.05
69324;DHT22;56470;47.350;8.718;2023-05-07T15:31:11;21.50;58.39
69324;DHT22;56470;47.350;8.718;2023-05-07T15:33:36;21.50;58.79
69324;DHT22;56470;47.350;8.718;2023-05-07T15:36:02;21.46;58.97
69324;DHT22;56470;47.350;8.718;2023-05-07T15:38:28;21.42;59.32
69324;DHT22;56470;47.350;8.718;2023-05-07T15:40:53;21.37;59.76